sensor_id;sensor_type;location;lat;lon;timestamp;temperature;humidity
25616;DHT22;13482;48.234;13.006;2023-12-20T00:01:50;1.50;71.60
25616;DHT22;13482;48.234;13.006;2023-12-20T00:04:18;1.50;71.60
25616;DHT22;13482;48.234;13.006;2023-12-20T00:06:46;1.50;71.60
25616;DHT22;13482;48.234;13.006;2023-12-20T00:09:13;1.50;71.60
25616;DHT22;13482;48.234;13.006;2023-12-20T00:11:41;1.50;71.60
25616;DHT22;13482;48.234;13.006;2023-12-20T00:14:09;1.50;71.70
25616;DHT22;13482;48.234;13.006;2023-12-20T00:16:37;1.50;71.70
25616;DHT22;13482;48.234;13.006;2023-12-20T00:19:04;1.50;71.60
25616;DHT22;13482;48.234;13.006;2023-12-20T00:21:32;1.50;71.70
25616;DHT22;13482;48.234;13.006;2023-12-20T00:23:59;1.50;71.70
25616;DHT22;13482;48.234;13.006;2023-12-20T00:26:27;1.50;71.80
25616;DHT22;13482;48.234;13.006;2023-12-20T00:28:55;1.50;71.80
25616;DHT22;13482;48.234;13.006;2023-12-20T00:31:23;1.40;71.70
25616;DHT22;13482;48.234;13.006;2023-12-20T00:33:50;1.40;71.80
25616;DHT22;13482;48.234;13.006;2023-12-20T00:36:18;1.50;71.90
25616;DHT22;13482;48.234;13.006;2023-12-20T00:38:45;1.50;71.90
25616;DHT22;13482;48.234;13.006;2023-12-20T00:41:13;1.50;71.90
25616;DHT22;13482;48.234;13.006;2023-12-20T00:43:40;1.50;71.80
25616;DHT22;13482;48.234;13.006;2023-12-20T00:46:08;1.50;71.80
25616;DHT22;13482;48.234;13.006;2023-12-20T00:48:35;1.50;71.80
25616;DHT22;13482;48.234;13.006;2023-12-20T00:51:03;1.50;71.80
25616;DHT22;13482;48.234;13.006;2023-12-20T00:53:31;1.50;71.80
25616;DHT22;13482;48.234;13.006;2023-12-20T00:55:58;1.40;71.80
25616;DHT22;13482;48.234;13.006;2023-12-20T00:58:26;1.50;71.70
25616;DHT22;13482;48.234;13.006;2023-12-20T01:00:55;1.40;71.70
25616;DHT22;13482;48.234;13.006;2023-12-20T01:03:22;1.50;71.60
25616;DHT22;13482;48.234;13.006;2023-12-20T01:05:50;1.40;71.60
25616;DHT22;13482;48.234;13.006;2023-12-20T01:08:17;1.40;71.60
25616;DHT22;13482;48.234;13.006;2023-12-20T01:10:45;1.40;71.60
25616;DHT22;13482;48.234;13.006;2023-12-20T01:13:14;1.40;71.80
25616;DHT22;13482;48.234;13.006;2023-12-20T01:15:42;1.40;72.10
25616;DHT22;13482;48.234;13.006;2023-12-20T01:18:09;1.40;72.10
25616;DHT22;13482;48.234;13.006;2023-12-20T01:20:37;1.40;72.20
25616;DHT22;13482;48.234;13.006;2023-12-20T01:23:04;1.40;72.30
25616;DHT22;13482;48.234;13.006;2023-12-20T01:25:32;1.50;72.40
25616;DHT22;13482;48.234;13.006;2023-12-20T01:27:59;1.50;72.50
25616;DHT22;13482;48.234;13.006;2023-12-20T01:30:27;1.50;72.40
25616;DHT22;13482;48.234;13.006;2023-12-20T01:32:54;1.50;72.50
25616;DHT22;13482;48.234;13.006;2023-12-20T01:35:22;1.50;72.70
25616;DHT22;13482;48.234;13.006;2023-12-20T01:37:49;1.60;72.70
25616;DHT22;13482;48.234;13.006;2023-12-20T01:40:17;1.60;72.90
25616;DHT22;13482;48.234;13.006;2023-12-20T01:42:45;1.60;72.90
25616;DHT22;13482;48.234;13.006;2023-12-20T01:45:12;1.60;73.10
25616;DHT22;13482;48.234;13.006;2023-12-20T01:47:40;1.70;73.20
25616;DHT22;13482;48.234;13.006;2023-12-20T01:50:08;1.70;73.40
25616;DHT22;13482;48.234;13.006;2023-12-20T01:52:37;1.70;73.40
25616;DHT22;13482;48.234;13.006;2023-12-20T01:55:05;1.80;73.30
25616;DHT22;13482;48.234;13.006;2023-12-20T01:57:41;1.90;73.30
25616;DHT22;13482;48.234;13.006;2023-12-20T02:00:12;1.90;73.30
25616;DHT22;13482;48.234;13.006;2023-12-20T02:02:41;1.90;73.40
25616;DHT22;13482;48.234;13.006;2023-12-20T02:05:11;2.00;73.70
25616;DHT22;13482;48.234;13.006;2023-12-20T02:07:39;2.00;73.50
25616;DHT22;13482;48.234;13.006;2023-12-20T02:10:08;2.10;73.40
25616;DHT22;13482;48.234;13.006;2023-12-20T02:12:36;2.10;73.40
25616;DHT22;13482;48.234;13.006;2023-12-20T02:15:04;2.20;73.50
25616;DHT22;13482;48.234;13.006;2023-12-20T02:17:32;2.20;73.50
25616;DHT22;13482;48.234;13.006;2023-12-20T02:20:01;2.30;73.50
25616;DHT22;13482;48.234;13.006;2023-12-20T02:22:30;2.30;73.40
25616;DHT22;13482;48.234;13.006;2023-12-20T02:24:57;2.30;73.30
25616;DHT22;13482;48.234;13.006;2023-12-20T02:27:25;2.30;73.40
25616;DHT22;13482;48.234;13.006;2023-12-20T02:29:52;2.40;73.50
25616;DHT22;13482;48.234;13.006;2023-12-20T02:32:21;2.40;73.50
25616;DHT22;13482;48.234;13.006;2023-12-20T02:34:50;2.40;73.60
25616;DHT22;13482;48.234;13.006;2023-12-20T02:37:18;2.50;73.60
25616;DHT22;13482;48.234;13.006;2023-12-20T02:39:45;2.50;73.60
25616;DHT22;13482;48.234;13.006;2023-12-20T02:42:13;2.50;73.70
25616;DHT22;13482;48.234;13.006;2023-12-20T02:44:40;2.60;73.70
25616;DHT22;13482;48.234;13.006;2023-12-20T02:47:08;2.60;73.70
25616;DHT22;13482;48.234;13.006;2023-12-20T02:49:35;2.60;73.70
25616;DHT22;13482;48.234;13.006;2023-12-20T02:52:03;2.70;73.70
25616;DHT22;13482;48.234;13.006;2023-12-20T02:54:31;2.70;73.80
25616;DHT22;13482;48.234;13.006;2023-12-20T02:56:59;2.80;73.80
25616;DHT22;13482;48.234;13.006;2023-12-20T02:59:26;2.80;73.90
25616;DHT22;13482;48.234;13.006;2023-12-20T03:01:54;2.90;74.00
25616;DHT22;13482;48.234;13.006;2023-12-20T03:04:22;2.90;73.90
25616;DHT22;13482;48.234;13.006;2023-12-20T03:06:49;2.90;74.00
25616;DHT22;13482;48.234;13.006;2023-12-20T03:09:17;2.90;74.00
25616;DHT22;13482;48.234;13.006;2023-12-20T03:11:44;3.00;74.00
25616;DHT22;13482;48.234;13.006;2023-12-20T03:14:12;3.00;74.00
25616;DHT22;13482;48.234;13.006;2023-12-20T03:16:39;3.10;73.90
25616;DHT22;13482;48.234;13.006;2023-12-20T03:19:07;3.10;74.00
25616;DHT22;13482;48.234;13.006;2023-12-20T03:21:35;3.10;74.00
25616;DHT22;13482;48.234;13.006;2023-12-20T03:24:03;3.20;74.00
25616;DHT22;13482;48.234;13.006;2023-12-20T03:26:30;3.20;74.00
25616;DHT22;13482;48.234;13.006;2023-12-20T03:28:58;3.20;74.00
25616;DHT22;13482;48.234;13.006;2023-12-20T03:31:25;3.30;74.00
25616;DHT22;13482;48.234;13.006;2023-12-20T03:33:53;3.30;74.00
25616;DHT22;13482;48.234;13.006;2023-12-20T03:36:21;3.30;74.00
25616;DHT22;13482;48.234;13.006;2023-12-20T03:38:48;3.30;74.10
25616;DHT22;13482;48.234;13.006;2023-12-20T03:41:16;3.30;74.20
25616;DHT22;13482;48.234;13.006;2023-12-20T03:43:44;3.40;74.20
25616;DHT22;13482;48.234;13.006;2023-12-20T03:46:11;3.40;74.20
25616;DHT22;13482;48.234;13.006;2023-12-20T03:48:39;3.40;74.20
25616;DHT22;13482;48.234;13.006;2023-12-20T03:51:06;3.50;74.20
25616;DHT22;13482;48.234;13.006;2023-12-20T03:53:34;3.50;74.20
25616;DHT22;13482;48.234;13.006;2023-12-20T03:56:01;3.50;74.20
25616;DHT22;13482;48.234;13.006;2023-12-20T03:58:29;3.50;74.20
25616;DHT22;13482;48.234;13.006;2023-12-20T04:00:56;3.60;74.20
25616;DHT22;13482;48.234;13.006;2023-12-20T04:03:24;3.60;74.20
25616;DHT22;13482;48.234;13.006;2023-12-20T04:05:52;3.60;74.30
25616;DHT22;13482;48.234;13.006;2023-12-20T04:08:20;3.70;74.40
25616;DHT22;13482;48.234;13.006;2023-12-20T04:10:47;3.70;74.40
25616;DHT22;13482;48.234;13.006;2023-12-20T04:13:15;3.70;74.40
25616;DHT22;13482;48.234;13.006;2023-12-20T04:15:43;3.70;74.40
25616;DHT22;13482;48.234;13.006;2023-12-20T04:18:10;3.80;74.30
25616;DHT22;13482;48.234;13.006;2023-12-20T04:20:38;3.80;74.30
25616;DHT22;13482;48.234;13.006;2023-12-20T04:23:05;3.80;74.40
25616;DHT22;13482;48.234;13.006;2023-12-20T04:25:33;3.80;74.50
25616;DHT22;13482;48.234;13.006;2023-12-20T04:28:00;3.90;74.30
25616;DHT22;13482;48.234;13.006;2023-12-20T04:30:28;3.90;74.50
25616;DHT22;13482;48.234;13.006;2023-12-20T04:32:56;3.90;74.50
25616;DHT22;13482;48.234;13.006;2023-12-20T04:35:24;3.90;74.40
25616;DHT22;13482;48.234;13.006;2023-12-20T04:37:52;4.00;74.60
25616;DHT22;13482;48.234;13.006;2023-12-20T04:40:19;4.00;74.50
25616;DHT22;13482;48.234;13.006;2023-12-20T04:42:47;4.00;74.50
25616;DHT22;13482;48.234;13.006;2023-12-20T04:45:15;4.00;74.60
25616;DHT22;13482;48.234;13.006;2023-12-20T04:47:46;4.10;74.60
25616;DHT22;13482;48.234;13.006;2023-12-20T04:50:15;4.10;74.40
25616;DHT22;13482;48.234;13.006;2023-12-20T04:52:43;4.10;74.60
25616;DHT22;13482;48.234;13.006;2023-12-20T04:55:10;4.10;74.70
25616;DHT22;13482;48.234;13.006;2023-12-20T04:57:38;4.20;74.60
25616;DHT22;13482;48.234;13.006;2023-12-20T05:00:06;4.20;74.50
25616;DHT22;13482;48.234;13.006;2023-12-20T05:02:37;4.30;74.60
25616;DHT22;13482;48.234;13.006;2023-12-20T05:05:05;4.30;74.40
25616;DHT22;13482;48.234;13.006;2023-12-20T05:07:33;4.30;74.30
25616;DHT22;13482;48.234;13.006;2023-12-20T05:10:00;4.30;74.40
25616;DHT22;13482;48.234;13.006;2023-12-20T05:12:28;4.30;74.50
25616;DHT22;13482;48.234;13.006;2023-12-20T05:14:56;4.40;74.50
25616;DHT22;13482;48.234;13.006;2023-12-20T05:17:23;4.40;74.50
25616;DHT22;13482;48.234;13.006;2023-12-20T05:19:51;4.40;74.50
25616;DHT22;13482;48.234;13.006;2023-12-20T05:22:19;4.40;74.60
25616;DHT22;13482;48.234;13.006;2023-12-20T05:24:47;4.50;74.50
25616;DHT22;13482;48.234;13.006;2023-12-20T05:27:15;4.50;74.50
25616;DHT22;13482;48.234;13.006;2023-12-20T05:29:44;4.50;74.60
25616;DHT22;13482;48.234;13.006;2023-12-20T05:32:14;4.50;74.60
25616;DHT22;13482;48.234;13.006;2023-12-20T05:34:41;4.50;74.60
25616;DHT22;13482;48.234;13.006;2023-12-20T05:37:09;4.60;74.70
25616;DHT22;13482;48.234;13.006;2023-12-20T05:39:39;4.60;74.80
25616;DHT22;13482;48.234;13.006;2023-12-20T05:42:07;4.70;74.70
25616;DHT22;13482;48.234;13.006;2023-12-20T05:44:35;4.70;74.80
25616;DHT22;13482;48.234;13.006;2023-12-20T05:47:05;4.80;74.80
25616;DHT22;13482;48.234;13.006;2023-12-20T05:49:35;4.80;74.80
25616;DHT22;13482;48.234;13.006;2023-12-20T05:52:04;4.90;74.80
25616;DHT22;13482;48.234;13.006;2023-12-20T05:54:36;4.90;74.80
25616;DHT22;13482;48.234;13.006;2023-12-20T05:57:16;5.00;74.90
25616;DHT22;13482;48.234;13.006;2023-12-20T05:59:49;5.00;75.00
25616;DHT22;13482;48.234;13.006;2023-12-20T06:02:20;5.10;75.10
25616;DHT22;13482;48.234;13.006;2023-12-20T06:04:54;5.20;75.10
25616;DHT22;13482;48.234;13.006;2023-12-20T06:20:56;5.40;74.70
25616;DHT22;13482;48.234;13.006;2023-12-20T06:23:28;5.40;74.70
25616;DHT22;13482;48.234;13.006;2023-12-20T06:26:03;5.40;74.70
25616;DHT22;13482;48.234;13.006;2023-12-20T06:28:32;5.40;74.70
25616;DHT22;13482;48.234;13.006;2023-12-20T06:31:07;5.40;74.70
25616;DHT22;13482;48.234;13.006;2023-12-20T06:33:38;5.50;74.70
25616;DHT22;13482;48.234;13.006;2023-12-20T06:36:14;5.50;74.70
25616;DHT22;13482;48.234;13.006;2023-12-20T06:38:42;5.50;74.70
25616;DHT22;13482;48.234;13.006;2023-12-20T06:41:13;5.50;74.70
25616;DHT22;13482;48.234;13.006;2023-12-20T06:43:47;5.50;74.80
25616;DHT22;13482;48.234;13.006;2023-12-20T06:46:17;5.60;74.80
25616;DHT22;13482;48.234;13.006;2023-12-20T06:48:49;5.60;75.00
25616;DHT22;13482;48.234;13.006;2023-12-20T06:51:19;5.60;75.20
25616;DHT22;13482;48.234;13.006;2023-12-20T06:53:47;5.60;75.30
25616;DHT22;13482;48.234;13.006;2023-12-20T06:56:14;5.70;75.30
25616;DHT22;13482;48.234;13.006;2023-12-20T06:58:46;5.70;75.20
25616;DHT22;13482;48.234;13.006;2023-12-20T07:01:14;5.70;75.30
25616;DHT22;13482;48.234;13.006;2023-12-20T07:03:43;5.80;75.30
25616;DHT22;13482;48.234;13.006;2023-12-20T07:06:11;5.80;75.30
25616;DHT22;13482;48.234;13.006;2023-12-20T07:08:42;5.80;75.30
25616;DHT22;13482;48.234;13.006;2023-12-20T07:11:09;5.80;75.40
25616;DHT22;13482;48.234;13.006;2023-12-20T07:13:37;5.90;75.40
25616;DHT22;13482;48.234;13.006;2023-12-20T07:16:05;5.90;75.50
25616;DHT22;13482;48.234;13.006;2023-12-20T07:18:33;5.90;75.60
25616;DHT22;13482;48.234;13.006;2023-12-20T07:21:01;6.00;75.60
25616;DHT22;13482;48.234;13.006;2023-12-20T07:23:29;6.00;75.70
25616;DHT22;13482;48.234;13.006;2023-12-20T07:25:56;6.00;75.80
25616;DHT22;13482;48.234;13.006;2023-12-20T07:28:24;6.10;76.00
25616;DHT22;13482;48.234;13.006;2023-12-20T07:30:52;6.10;76.10
25616;DHT22;13482;48.234;13.006;2023-12-20T07:33:19;6.20;76.20
25616;DHT22;13482;48.234;13.006;2023-12-20T07:35:47;6.20;76.20
25616;DHT22;13482;48.234;13.006;2023-12-20T07:38:15;6.30;76.30
25616;DHT22;13482;48.234;13.006;2023-12-20T07:40:43;6.30;76.30
25616;DHT22;13482;48.234;13.006;2023-12-20T07:43:10;6.40;76.30
25616;DHT22;13482;48.234;13.006;2023-12-20T07:45:37;6.40;76.40
25616;DHT22;13482;48.234;13.006;2023-12-20T07:48:06;6.50;76.50
25616;DHT22;13482;48.234;13.006;2023-12-20T07:50:34;6.50;76.50
25616;DHT22;13482;48.234;13.006;2023-12-20T07:53:02;6.60;76.50
25616;DHT22;13482;48.234;13.006;2023-12-20T07:55:30;6.60;76.40
25616;DHT22;13482;48.234;13.006;2023-12-20T07:57:59;6.60;76.50
25616;DHT22;13482;48.234;13.006;2023-12-20T08:00:27;6.70;76.50
25616;DHT22;13482;48.234;13.006;2023-12-20T08:02:54;6.70;76.50
25616;DHT22;13482;48.234;13.006;2023-12-20T08:05:22;6.80;76.50
25616;DHT22;13482;48.234;13.006;2023-12-20T08:07:50;6.80;76.50
25616;DHT22;13482;48.234;13.006;2023-12-20T08:10:17;6.80;76.50
25616;DHT22;13482;48.234;13.006;2023-12-20T08:12:46;6.90;76.50
25616;DHT22;13482;48.234;13.006;2023-12-20T08:15:14;6.90;76.60
25616;DHT22;13482;48.234;13.006;2023-12-20T08:17:42;6.90;76.40
25616;DHT22;13482;48.234;13.006;2023-12-20T08:20:10;7.00;76.40
25616;DHT22;13482;48.234;13.006;2023-12-20T08:22:41;7.00;76.40
25616;DHT22;13482;48.234;13.006;2023-12-20T08:25:09;7.00;76.40
25616;DHT22;13482;48.234;13.006;2023-12-20T08:27:40;7.10;76.40
25616;DHT22;13482;48.234;13.006;2023-12-20T08:30:09;7.10;76.40
25616;DHT22;13482;48.234;13.006;2023-12-20T08:32:37;7.10;76.50
25616;DHT22;13482;48.234;13.006;2023-12-20T08:35:05;7.20;76.60
25616;DHT22;13482;48.234;13.006;2023-12-20T08:37:33;7.20;76.70
25616;DHT22;13482;48.234;13.006;2023-12-20T08:40:00;7.20;76.70
25616;DHT22;13482;48.234;13.006;2023-12-20T08:42:27;7.20;76.70
25616;DHT22;13482;48.234;13.006;2023-12-20T08:44:58;7.30;76.70
25616;DHT22;13482;48.234;13.006;2023-12-20T08:47:26;7.30;76.60
25616;DHT22;13482;48.234;13.006;2023-12-20T08:49:54;7.40;76.60
25616;DHT22;13482;48.234;13.006;2023-12-20T08:52:23;7.40;76.60
25616;DHT22;13482;48.234;13.006;2023-12-20T08:54:51;7.40;76.60
25616;DHT22;13482;48.234;13.006;2023-12-20T08:57:22;7.40;76.70
25616;DHT22;13482;48.234;13.006;2023-12-20T08:59:52;7.50;76.80
25616;DHT22;13482;48.234;13.006;2023-12-20T09:02:20;7.50;76.80
25616;DHT22;13482;48.234;13.006;2023-12-20T09:04:50;7.50;76.80
25616;DHT22;13482;48.234;13.006;2023-12-20T09:07:27;7.60;76.80
25616;DHT22;13482;48.234;13.006;2023-12-20T09:09:58;7.60;76.90
25616;DHT22;13482;48.234;13.006;2023-12-20T09:12:26;7.60;76.80
25616;DHT22;13482;48.234;13.006;2023-12-20T09:14:54;7.70;76.80
25616;DHT22;13482;48.234;13.006;2023-12-20T09:17:22;7.70;76.70
25616;DHT22;13482;48.234;13.006;2023-12-20T09:19:50;7.70;76.70
25616;DHT22;13482;48.234;13.006;2023-12-20T09:22:21;7.80;76.80
25616;DHT22;13482;48.234;13.006;2023-12-20T09:24:49;7.80;76.80
25616;DHT22;13482;48.234;13.006;2023-12-20T09:27:17;7.80;76.80
25616;DHT22;13482;48.234;13.006;2023-12-20T09:29:44;7.80;76.80
25616;DHT22;13482;48.234;13.006;2023-12-20T09:32:11;7.80;76.80
25616;DHT22;13482;48.234;13.006;2023-12-20T09:34:39;7.90;76.80
25616;DHT22;13482;48.234;13.006;2023-12-20T09:37:09;7.90;76.70
25616;DHT22;13482;48.234;13.006;2023-12-20T09:39:36;7.90;76.70
25616;DHT22;13482;48.234;13.006;2023-12-20T09:42:05;7.90;76.70
25616;DHT22;13482;48.234;13.006;2023-12-20T09:44:34;8.00;76.80
25616;DHT22;13482;48.234;13.006;2023-12-20T09:47:03;8.00;76.80
25616;DHT22;13482;48.234;13.006;2023-12-20T09:49:33;8.00;76.80
25616;DHT22;13482;48.234;13.006;2023-12-20T09:52:01;8.10;76.80
25616;DHT22;13482;48.234;13.006;2023-12-20T09:54:30;8.10;76.80
25616;DHT22;13482;48.234;13.006;2023-12-20T09:56:58;8.10;76.80
25616;DHT22;13482;48.234;13.006;2023-12-20T09:59:25;8.10;76.80
25616;DHT22;13482;48.234;13.006;2023-12-20T10:01:55;8.10;76.80
25616;DHT22;13482;48.234;13.006;2023-12-20T10:04:26;8.20;76.80
25616;DHT22;13482;48.234;13.006;2023-12-20T10:06:56;8.20;76.80
25616;DHT22;13482;48.234;13.006;2023-12-20T10:09:25;8.10;76.80
25616;DHT22;13482;48.234;13.006;2023-12-20T10:11:56;8.10;76.90
25616;DHT22;13482;48.234;13.006;2023-12-20T10:14:24;8.20;76.80
25616;DHT22;13482;48.234;13.006;2023-12-20T10:16:51;8.20;76.90
25616;DHT22;13482;48.234;13.006;2023-12-20T10:19:20;8.10;76.90
25616;DHT22;13482;48.234;13.006;2023-12-20T10:21:48;8.20;76.80
25616;DHT22;13482;48.234;13.006;2023-12-20T10:24:19;8.20;76.80
25616;DHT22;13482;48.234;13.006;2023-12-20T10:27:02;8.20;76.80
25616;DHT22;13482;48.234;13.006;2023-12-20T10:29:35;8.20;77.00
25616;DHT22;13482;48.234;13.006;2023-12-20T10:32:25;8.20;76.80
25616;DHT22;13482;48.234;13.006;2023-12-20T10:34:55;8.20;77.10
25616;DHT22;13482;48.234;13.006;2023-12-20T10:37:23;8.20;76.80
25616;DHT22;13482;48.234;13.006;2023-12-20T10:39:53;8.20;76.70
25616;DHT22;13482;48.234;13.006;2023-12-20T10:42:26;8.20;76.80
25616;DHT22;13482;48.234;13.006;2023-12-20T10:44:55;8.20;76.80
25616;DHT22;13482;48.234;13.006;2023-12-20T10:47:24;8.20;76.90
25616;DHT22;13482;48.234;13.006;2023-12-20T10:49:53;8.20;76.80
25616;DHT22;13482;48.234;13.006;2023-12-20T10:52:27;8.20;76.90
25616;DHT22;13482;48.234;13.006;2023-12-20T10:54:55;8.20;77.00
25616;DHT22;13482;48.234;13.006;2023-12-20T10:57:23;8.20;77.00
25616;DHT22;13482;48.234;13.006;2023-12-20T10:59:58;8.20;77.00
25616;DHT22;13482;48.234;13.006;2023-12-20T11:02:39;8.20;77.00
25616;DHT22;13482;48.234;13.006;2023-12-20T11:05:22;8.20;77.20
25616;DHT22;13482;48.234;13.006;2023-12-20T11:08:24;8.20;77.10
25616;DHT22;13482;48.234;13.006;2023-12-20T11:14:23;8.20;77.30
25616;DHT22;13482;48.234;13.006;2023-12-20T11:17:09;8.30;77.10
25616;DHT22;13482;48.234;13.006;2023-12-20T11:22:26;8.30;77.50
25616;DHT22;13482;48.234;13.006;2023-12-20T11:24:59;8.30;77.20
25616;DHT22;13482;48.234;13.006;2023-12-20T11:27:36;8.30;77.30
25616;DHT22;13482;48.234;13.006;2023-12-20T11:30:10;8.30;77.30
25616;DHT22;13482;48.234;13.006;2023-12-20T11:32:40;8.30;77.30
25616;DHT22;13482;48.234;13.006;2023-12-20T11:37:37;8.30;77.40
25616;DHT22;13482;48.234;13.006;2023-12-20T11:40:17;8.40;77.50
25616;DHT22;13482;48.234;13.006;2023-12-20T11:42:50;8.40;77.60
25616;DHT22;13482;48.234;13.006;2023-12-20T11:45:21;8.50;77.50
25616;DHT22;13482;48.234;13.006;2023-12-20T11:47:53;8.50;77.50
25616;DHT22;13482;48.234;13.006;2023-12-20T11:50:22;8.50;77.50
25616;DHT22;13482;48.234;13.006;2023-12-20T11:52:52;8.50;77.60
25616;DHT22;13482;48.234;13.006;2023-12-20T11:55:28;8.60;77.50
25616;DHT22;13482;48.234;13.006;2023-12-20T11:57:56;8.60;77.50
25616;DHT22;13482;48.234;13.006;2023-12-20T12:00:25;8.60;77.40
25616;DHT22;13482;48.234;13.006;2023-12-20T12:02:59;8.60;77.40
25616;DHT22;13482;48.234;13.006;2023-12-20T12:05:27;8.70;77.40
25616;DHT22;13482;48.234;13.006;2023-12-20T12:07:56;8.70;77.30
25616;DHT22;13482;48.234;13.006;2023-12-20T12:10:27;8.70;77.30
25616;DHT22;13482;48.234;13.006;2023-12-20T12:12:55;8.70;77.20
25616;DHT22;13482;48.234;13.006;2023-12-20T12:15:23;8.70;77.30
25616;DHT22;13482;48.234;13.006;2023-12-20T12:17:57;8.70;77.10
25616;DHT22;13482;48.234;13.006;2023-12-20T12:20:26;8.80;77.30
25616;DHT22;13482;48.234;13.006;2023-12-20T12:23:04;8.70;77.20
25616;DHT22;13482;48.234;13.006;2023-12-20T12:25:35;8.80;77.20
25616;DHT22;13482;48.234;13.006;2023-12-20T12:28:10;8.80;77.20
25616;DHT22;13482;48.234;13.006;2023-12-20T12:30:38;8.80;77.20
25616;DHT22;13482;48.234;13.006;2023-12-20T12:33:19;8.80;77.30
25616;DHT22;13482;48.234;13.006;2023-12-20T12:35:47;8.80;77.30
25616;DHT22;13482;48.234;13.006;2023-12-20T12:38:15;8.90;77.30
25616;DHT22;13482;48.234;13.006;2023-12-20T12:40:44;8.90;77.30
25616;DHT22;13482;48.234;13.006;2023-12-20T12:43:11;8.90;77.30
25616;DHT22;13482;48.234;13.006;2023-12-20T12:45:40;9.00;77.30
25616;DHT22;13482;48.234;13.006;2023-12-20T12:48:07;9.00;77.30
25616;DHT22;13482;48.234;13.006;2023-12-20T12:50:35;9.00;77.20
25616;DHT22;13482;48.234;13.006;2023-12-20T12:53:03;9.10;77.20
25616;DHT22;13482;48.234;13.006;2023-12-20T12:55:30;9.10;77.10
25616;DHT22;13482;48.234;13.006;2023-12-20T12:57:59;9.10;77.10
25616;DHT22;13482;48.234;13.006;2023-12-20T13:00:29;9.20;77.20
25616;DHT22;13482;48.234;13.006;2023-12-20T13:02:57;9.20;77.10
25616;DHT22;13482;48.234;13.006;2023-12-20T13:05:24;9.20;77.10
25616;DHT22;13482;48.234;13.006;2023-12-20T13:07:52;9.20;77.10
25616;DHT22;13482;48.234;13.006;2023-12-20T13:10:21;9.30;76.90
25616;DHT22;13482;48.234;13.006;2023-12-20T13:12:48;9.30;76.80
25616;DHT22;13482;48.234;13.006;2023-12-20T13:15:16;9.30;76.80
25616;DHT22;13482;48.234;13.006;2023-12-20T13:17:44;9.30;76.80
25616;DHT22;13482;48.234;13.006;2023-12-20T13:20:14;9.40;76.80
25616;DHT22;13482;48.234;13.006;2023-12-20T13:22:41;9.40;76.70
25616;DHT22;13482;48.234;13.006;2023-12-20T13:25:09;9.40;76.60
25616;DHT22;13482;48.234;13.006;2023-12-20T13:27:36;9.40;76.60
25616;DHT22;13482;48.234;13.006;2023-12-20T13:30:05;9.40;76.40
25616;DHT22;13482;48.234;13.006;2023-12-20T13:32:33;9.40;76.30
25616;DHT22;13482;48.234;13.006;2023-12-20T13:35:01;9.40;76.10
25616;DHT22;13482;48.234;13.006;2023-12-20T13:37:31;9.30;76.00
25616;DHT22;13482;48.234;13.006;2023-12-20T13:39:58;9.30;75.80
25616;DHT22;13482;48.234;13.006;2023-12-20T13:42:26;9.30;75.70
25616;DHT22;13482;48.234;13.006;2023-12-20T13:44:54;9.20;75.60
25616;DHT22;13482;48.234;13.006;2023-12-20T13:47:22;9.20;75.50
25616;DHT22;13482;48.234;13.006;2023-12-20T13:49:51;9.20;75.50
25616;DHT22;13482;48.234;13.006;2023-12-20T13:52:19;9.10;75.50
25616;DHT22;13482;48.234;13.006;2023-12-20T13:54:47;9.10;75.50
25616;DHT22;13482;48.234;13.006;2023-12-20T13:57:15;9.00;75.50
25616;DHT22;13482;48.234;13.006;2023-12-20T13:59:47;9.00;75.60
25616;DHT22;13482;48.234;13.006;2023-12-20T14:02:15;9.00;75.60
25616;DHT22;13482;48.234;13.006;2023-12-20T14:04:43;8.90;75.70
25616;DHT22;13482;48.234;13.006;2023-12-20T14:07:11;8.90;75.70
25616;DHT22;13482;48.234;13.006;2023-12-20T14:09:40;8.90;75.70
25616;DHT22;13482;48.234;13.006;2023-12-20T14:12:14;8.90;75.80
25616;DHT22;13482;48.234;13.006;2023-12-20T14:14:42;8.90;75.80
25616;DHT22;13482;48.234;13.006;2023-12-20T14:17:09;8.90;75.80
25616;DHT22;13482;48.234;13.006;2023-12-20T14:19:37;8.90;75.80
25616;DHT22;13482;48.234;13.006;2023-12-20T14:22:04;8.90;75.80
25616;DHT22;13482;48.234;13.006;2023-12-20T14:24:34;8.90;75.90
25616;DHT22;13482;48.234;13.006;2023-12-20T14:27:03;8.90;75.80
25616;DHT22;13482;48.234;13.006;2023-12-20T14:29:30;8.90;75.80
25616;DHT22;13482;48.234;13.006;2023-12-20T14:31:58;8.90;75.80
25616;DHT22;13482;48.234;13.006;2023-12-20T14:34:25;8.90;75.70
25616;DHT22;13482;48.234;13.006;2023-12-20T14:36:53;8.90;75.70
25616;DHT22;13482;48.234;13.006;2023-12-20T14:39:21;8.90;75.70
25616;DHT22;13482;48.234;13.006;2023-12-20T14:41:49;8.80;75.70
25616;DHT22;13482;48.234;13.006;2023-12-20T14:44:17;8.80;75.70
25616;DHT22;13482;48.234;13.006;2023-12-20T14:46:44;8.80;75.70
25616;DHT22;13482;48.234;13.006;2023-12-20T14:49:12;8.80;75.70
25616;DHT22;13482;48.234;13.006;2023-12-20T14:51:44;8.80;75.70
25616;DHT22;13482;48.234;13.006;2023-12-20T14:54:11;8.80;75.80
25616;DHT22;13482;48.234;13.006;2023-12-20T14:56:40;8.80;75.80
25616;DHT22;13482;48.234;13.006;2023-12-20T14:59:10;8.80;75.90
25616;DHT22;13482;48.234;13.006;2023-12-20T15:01:41;8.70;75.90
25616;DHT22;13482;48.234;13.006;2023-12-20T15:04:17;8.80;75.90
25616;DHT22;13482;48.234;13.006;2023-12-20T15:06:48;8.70;75.80
25616;DHT22;13482;48.234;13.006;2023-12-20T15:09:16;8.70;75.70
25616;DHT22;13482;48.234;13.006;2023-12-20T15:11:44;8.70;75.60
25616;DHT22;13482;48.234;13.006;2023-12-20T15:14:11;8.70;75.70
25616;DHT22;13482;48.234;13.006;2023-12-20T15:16:41;8.70;75.70
25616;DHT22;13482;48.234;13.006;2023-12-20T15:19:09;8.60;75.60
25616;DHT22;13482;48.234;13.006;2023-12-20T15:21:36;8.60;75.60
25616;DHT22;13482;48.234;13.006;2023-12-20T15:24:13;8.60;75.40
25616;DHT22;13482;48.234;13.006;2023-12-20T15:26:47;8.50;75.30
25616;DHT22;13482;48.234;13.006;2023-12-20T15:29:14;8.50;75.40
25616;DHT22;13482;48.234;13.006;2023-12-20T15:31:43;8.50;75.40
25616;DHT22;13482;48.234;13.006;2023-12-20T15:34:14;8.40;75.40
25616;DHT22;13482;48.234;13.006;2023-12-20T15:36:43;8.40;75.40
25616;DHT22;13482;48.234;13.006;2023-12-20T15:39:14;8.40;75.30
25616;DHT22;13482;48.234;13.006;2023-12-20T15:41:41;8.30;75.30
25616;DHT22;13482;48.234;13.006;2023-12-20T15:44:10;8.30;75.10
25616;DHT22;13482;48.234;13.006;2023-12-20T15:46:38;8.30;75.00
25616;DHT22;13482;48.234;13.006;2023-12-20T15:49:06;8.30;74.90
25616;DHT22;13482;48.234;13.006;2023-12-20T15:51:36;8.20;74.90
25616;DHT22;13482;48.234;13.006;2023-12-20T15:54:04;8.20;74.80
25616;DHT22;13482;48.234;13.006;2023-12-20T15:56:35;8.20;74.70
25616;DHT22;13482;48.234;13.006;2023-12-20T15:59:04;8.10;74.80
25616;DHT22;13482;48.234;13.006;2023-12-20T16:01:31;8.10;74.70
25616;DHT22;13482;48.234;13.006;2023-12-20T16:03:59;8.00;74.70